createdAt,value
2017-09-29T00:01:56.292Z,18.00
2017-09-29T00:04:23.769Z,17.99
2017-09-29T00:06:51.312Z,18.01
2017-09-29T00:09:18.789Z,18.00
2017-09-29T00:11:46.339Z,17.97
2017-09-29T00:14:13.807Z,17.96
2017-09-29T00:16:41.271Z,17.95
2017-09-29T00:19:08.756Z,17.94
2017-09-29T00:21:36.224Z,17.91
2017-09-29T00:24:03.698Z,17.92
2017-09-29T00:26:31.175Z,17.90
2017-09-29T00:28:58.676Z,17.90
2017-09-29T00:31:26.145Z,17.90
2017-09-29T00:33:53.622Z,17.90
2017-09-29T00:36:21.105Z,17.90
2017-09-29T00:38:48.588Z,17.91
2017-09-29T00:41:16.076Z,17.90
2017-09-29T00:43:44.074Z,17.90
2017-09-29T00:46:12.088Z,17.90
2017-09-29T00:48:40.457Z,17.88
2017-09-29T00:51:07.942Z,17.87
2017-09-29T00:53:35.423Z,17.85
2017-09-29T00:56:02.902Z,17.82
2017-09-29T00:58:30.407Z,17.82
2017-09-29T01:00:57.874Z,17.81
2017-09-29T01:03:25.375Z,17.79
2017-09-29T01:05:52.855Z,17.74
2017-09-29T01:08:20.327Z,17.72
2017-09-29T01:10:47.803Z,17.70
2017-09-29T01:13:15.280Z,17.68
2017-09-29T01:15:43.408Z,17.69
2017-09-29T01:18:10.927Z,17.70
2017-09-29T01:20:38.395Z,17.71
2017-09-29T01:23:05.876Z,17.73
2017-09-29T01:25:33.364Z,17.71
2017-09-29T01:28:00.839Z,17.72
2017-09-29T01:30:28.303Z,17.72
2017-09-29T01:32:55.791Z,17.72
2017-09-29T01:35:23.273Z,17.69
2017-09-29T01:37:50.750Z,17.67
2017-09-29T01:40:18.226Z,17.67
2017-09-29T01:42:45.687Z,17.67
2017-09-29T01:45:13.163Z,17.68
2017-09-29T01:47:40.631Z,17.67
2017-09-29T01:50:08.114Z,17.62
2017-09-29T01:52:35.589Z,17.60
2017-09-29T01:55:03.065Z,17.61
2017-09-29T01:57:30.544Z,17.63
2017-09-29T01:59:58.044Z,17.76
2017-09-29T02:02:25.578Z,17.72
2017-09-29T02:04:53.056Z,17.69
2017-09-29T02:07:20.543Z,17.67
2017-09-29T02:09:48.017Z,17.65
2017-09-29T02:12:15.505Z,17.63
2017-09-29T02:14:42.980Z,17.59
2017-09-29T02:17:10.451Z,17.55
2017-09-29T02:19:37.944Z,17.52
2017-09-29T02:22:05.407Z,17.51
2017-09-29T02:24:32.892Z,17.52
2017-09-29T02:27:00.357Z,17.52
2017-09-29T02:29:27.846Z,17.52
2017-09-29T02:31:55.325Z,17.52
2017-09-29T02:34:22.804Z,17.45
2017-09-29T02:36:50.330Z,17.36
2017-09-29T02:39:17.799Z,17.42
2017-09-29T02:41:45.287Z,17.32
2017-09-29T02:44:12.858Z,17.20
2017-09-29T02:46:40.335Z,17.24
2017-09-29T02:49:07.814Z,17.19
2017-09-29T02:51:35.289Z,17.22
2017-09-29T02:54:02.767Z,17.15
2017-09-29T02:56:38.634Z,17.13
2017-09-29T02:59:08.521Z,17.22
2017-09-29T03:01:38.722Z,17.17
2017-09-29T03:04:10.183Z,17.11
2017-09-29T03:06:37.652Z,17.06
2017-09-29T03:09:05.132Z,17.01
2017-09-29T03:11:32.708Z,16.99
2017-09-29T03:14:00.179Z,16.99
2017-09-29T03:16:27.666Z,17.01
2017-09-29T03:18:55.140Z,17.04
2017-09-29T03:21:22.635Z,17.07
2017-09-29T03:23:50.109Z,17.11
2017-09-29T03:26:17.603Z,17.12
2017-09-29T03:28:45.084Z,17.13
2017-09-29T03:31:12.567Z,17.14
2017-09-29T03:33:40.052Z,17.16
2017-09-29T03:36:07.527Z,17.17
2017-09-29T03:38:35.045Z,17.17
2017-09-29T03:41:02.599Z,17.17
2017-09-29T03:43:30.076Z,17.18
2017-09-29T03:45:57.582Z,17.19
2017-09-29T03:48:25.068Z,17.13
2017-09-29T03:50:58.080Z,17.10
2017-09-29T03:53:27.399Z,17.09
2017-09-29T03:55:56.966Z,17.10
2017-09-29T03:58:26.703Z,17.11
2017-09-29T04:00:54.245Z,17.13
2017-09-29T04:03:21.749Z,17.14
2017-09-29T04:05:49.225Z,17.16
2017-09-29T04:08:16.731Z,17.18
2017-09-29T04:10:44.306Z,17.19
2017-09-29T04:13:12.407Z,17.21
2017-09-29T04:15:39.874Z,17.22
2017-09-29T04:18:07.370Z,17.23
2017-09-29T04:20:34.905Z,17.23
2017-09-29T04:23:02.379Z,17.24
2017-09-29T04:25:29.855Z,17.25
2017-09-29T04:27:57.343Z,17.25
2017-09-29T04:30:24.836Z,17.25
2017-09-29T04:32:52.403Z,17.26
2017-09-29T04:35:20.732Z,17.26
2017-09-29T04:37:48.268Z,17.27
2017-09-29T04:40:15.767Z,17.28
2017-09-29T04:42:43.256Z,17.28
2017-09-29T04:45:10.804Z,17.27
2017-09-29T04:47:38.315Z,17.26
2017-09-29T04:50:05.797Z,17.26
2017-09-29T04:52:33.282Z,17.27
2017-09-29T04:55:00.773Z,17.25
2017-09-29T04:57:28.249Z,17.24
2017-09-29T04:59:55.768Z,17.25
2017-09-29T05:02:23.242Z,17.25
2017-09-29T05:04:51.279Z,17.25
2017-09-29T05:07:18.836Z,17.24
2017-09-29T05:09:46.303Z,17.23
2017-09-29T05:12:13.912Z,17.22
2017-09-29T05:14:41.474Z,17.20
2017-09-29T05:17:08.965Z,17.17
2017-09-29T05:19:36.462Z,17.16
2017-09-29T05:22:03.974Z,17.14
2017-09-29T05:24:31.581Z,17.11
2017-09-29T05:26:59.069Z,17.09
2017-09-29T05:29:26.595Z,17.08
2017-09-29T05:31:54.088Z,17.08
2017-09-29T05:34:21.578Z,17.05
2017-09-29T05:36:49.390Z,17.04
2017-09-29T05:39:16.871Z,17.06
2017-09-29T05:41:44.391Z,17.10
2017-09-29T05:44:11.901Z,17.14
2017-09-29T05:46:39.643Z,17.16
2017-09-29T05:49:07.137Z,17.17
2017-09-29T05:51:34.611Z,17.17
2017-09-29T05:54:02.103Z,17.15
2017-09-29T05:56:29.584Z,17.12
2017-09-29T05:58:57.104Z,17.13
2017-09-29T06:01:24.599Z,17.12
2017-09-29T06:03:52.125Z,17.15
2017-09-29T06:06:19.660Z,17.17
2017-09-29T06:08:47.160Z,17.19
2017-09-29T06:11:14.967Z,17.22
2017-09-29T06:13:42.592Z,17.23
2017-09-29T06:16:10.084Z,17.26
2017-09-29T06:20:59.619Z,17.33
2017-09-29T06:23:27.145Z,17.36
2017-09-29T06:25:54.615Z,17.40
2017-09-29T06:28:22.160Z,17.43
2017-09-29T06:30:49.635Z,17.46
2017-09-29T06:33:17.232Z,17.48
2017-09-29T06:35:44.781Z,17.52
2017-09-29T06:38:12.314Z,17.57
2017-09-29T06:40:39.802Z,17.61
2017-09-29T06:43:07.294Z,17.65
2017-09-29T06:45:34.786Z,17.68
2017-09-29T06:48:02.262Z,17.73
2017-09-29T06:50:29.997Z,17.76
2017-09-29T06:52:57.516Z,17.79
2017-09-29T06:55:25.027Z,17.83
2017-09-29T06:57:52.521Z,17.86
2017-09-29T07:00:19.996Z,17.87
2017-09-29T07:02:47.507Z,17.88
2017-09-29T07:05:15.016Z,17.87
2017-09-29T07:07:42.593Z,17.88
2017-09-29T07:10:10.092Z,17.92
2017-09-29T07:12:37.854Z,17.97
2017-09-29T07:15:05.333Z,18.03
2017-09-29T07:17:32.803Z,18.08
2017-09-29T07:20:00.337Z,18.13
2017-09-29T07:22:27.836Z,18.17
2017-09-29T07:24:59.202Z,18.18
2017-09-29T07:27:29.226Z,18.20
2017-09-29T07:29:59.229Z,18.20
2017-09-29T07:32:31.228Z,18.21
2017-09-29T07:34:58.726Z,18.22
2017-09-29T07:37:26.199Z,18.24
2017-09-29T07:39:53.849Z,18.25
2017-09-29T07:42:21.371Z,18.26
2017-09-29T07:44:48.862Z,18.28
2017-09-29T07:47:16.441Z,18.31
2017-09-29T07:49:43.954Z,18.35
2017-09-29T07:52:11.451Z,18.39
2017-09-29T07:54:38.926Z,18.43
2017-09-29T07:57:06.409Z,18.46
2017-09-29T07:59:33.965Z,18.50
2017-09-29T08:02:01.438Z,18.53
2017-09-29T08:04:28.959Z,18.56
2017-09-29T08:06:56.441Z,18.61
2017-09-29T08:09:23.952Z,18.66
2017-09-29T08:11:51.552Z,18.73
2017-09-29T08:14:19.046Z,18.78
2017-09-29T08:16:46.539Z,18.85
2017-09-29T08:19:14.051Z,18.91
2017-09-29T08:21:41.535Z,18.97
2017-09-29T08:24:09.037Z,19.05
2017-09-29T08:26:36.641Z,19.16
2017-09-29T08:29:04.118Z,19.27
2017-09-29T08:31:31.638Z,19.37
2017-09-29T08:33:59.114Z,19.48
2017-09-29T08:36:26.593Z,19.54
2017-09-29T08:38:55.081Z,19.59
2017-09-29T08:41:22.582Z,19.65
2017-09-29T08:43:50.083Z,19.65
2017-09-29T08:46:19.880Z,19.61
2017-09-29T08:48:47.402Z,19.59
2017-09-29T08:51:14.894Z,19.65
2017-09-29T08:53:42.435Z,19.69
2017-09-29T08:56:09.914Z,19.74
2017-09-29T08:58:37.412Z,19.82
2017-09-29T09:01:04.924Z,19.85
2017-09-29T09:03:32.471Z,19.88
2017-09-29T09:06:00.028Z,19.98
2017-09-29T09:08:27.586Z,20.06
2017-09-29T09:10:55.115Z,20.11
2017-09-29T09:13:22.746Z,20.22
2017-09-29T09:15:50.232Z,20.27
2017-09-29T09:18:17.699Z,20.30
2017-09-29T09:20:45.223Z,20.31
2017-09-29T09:23:12.720Z,20.34
2017-09-29T09:25:40.248Z,20.33
2017-09-29T09:28:07.720Z,20.39
2017-09-29T09:30:35.207Z,20.37
2017-09-29T09:33:02.696Z,20.44
2017-09-29T09:35:30.239Z,20.44
2017-09-29T09:37:57.724Z,20.49
2017-09-29T09:40:25.214Z,20.41
2017-09-29T09:42:52.736Z,20.37
2017-09-29T09:45:20.256Z,20.31
2017-09-29T09:47:47.761Z,20.32
2017-09-29T09:50:15.222Z,20.43
2017-09-29T09:52:42.693Z,20.48
2017-09-29T09:55:10.209Z,20.52
2017-09-29T09:57:37.679Z,20.59
2017-09-29T10:00:05.154Z,20.61
2017-09-29T10:02:32.662Z,20.68
2017-09-29T10:05:00.151Z,20.80
2017-09-29T10:07:27.620Z,20.94
2017-09-29T10:09:55.093Z,21.05
2017-09-29T10:12:22.586Z,21.21
2017-09-29T10:14:50.050Z,21.28
2017-09-29T10:17:18.239Z,21.28
2017-09-29T10:19:45.795Z,21.28
2017-09-29T10:22:13.337Z,21.47
2017-09-29T10:24:40.808Z,21.62
2017-09-29T10:27:08.274Z,21.63
2017-09-29T10:29:35.753Z,21.80
2017-09-29T10:32:03.228Z,21.82
2017-09-29T10:34:30.697Z,21.92
2017-09-29T10:36:58.176Z,21.86
2017-09-29T10:39:25.741Z,21.86
2017-09-29T10:41:53.215Z,21.83
2017-09-29T10:44:20.701Z,21.72
2017-09-29T10:46:48.171Z,21.62
2017-09-29T10:49:15.680Z,21.79
2017-09-29T10:51:43.167Z,22.09
2017-09-29T10:54:10.635Z,22.34
2017-09-29T10:56:38.114Z,22.75
2017-09-29T10:59:05.566Z,23.18
2017-09-29T11:01:33.067Z,23.57
2017-09-29T11:04:00.571Z,23.73
2017-09-29T11:06:28.060Z,24.09
2017-09-29T11:08:55.626Z,24.37
2017-09-29T11:11:23.097Z,24.73
2017-09-29T11:13:50.572Z,24.99
2017-09-29T11:16:18.100Z,25.76
2017-09-29T11:18:45.685Z,26.24
2017-09-29T11:21:13.185Z,26.28
2017-09-29T11:23:40.675Z,26.58
2017-09-29T11:26:08.239Z,26.57
2017-09-29T11:28:35.712Z,26.11
2017-09-29T11:31:03.211Z,25.73
2017-09-29T11:33:30.695Z,25.04
2017-09-29T11:35:58.259Z,24.84
2017-09-29T11:38:25.742Z,24.91
2017-09-29T11:40:53.198Z,25.08
2017-09-29T11:43:20.671Z,25.58
2017-09-29T11:45:48.140Z,25.54
2017-09-29T11:48:15.642Z,25.67
2017-09-29T11:50:43.113Z,25.23
2017-09-29T11:53:10.675Z,25.29
2017-09-29T11:55:38.157Z,25.14
2017-09-29T11:58:05.625Z,25.21
2017-09-29T12:00:33.115Z,25.38
2017-09-29T12:03:00.594Z,25.61
2017-09-29T12:05:28.076Z,25.59
2017-09-29T12:07:55.540Z,25.65
2017-09-29T12:10:23.004Z,25.70
2017-09-29T12:12:50.487Z,25.55
2017-09-29T12:15:17.972Z,25.86
2017-09-29T12:17:45.465Z,26.20
2017-09-29T12:20:12.927Z,26.47
2017-09-29T12:22:40.588Z,26.60
2017-09-29T12:25:08.099Z,26.64
2017-09-29T12:27:35.635Z,26.61
2017-09-29T12:30:03.123Z,26.58
2017-09-29T12:32:30.587Z,26.23
2017-09-29T12:34:58.065Z,25.77
2017-09-29T12:37:25.537Z,25.91
2017-09-29T12:39:53.014Z,26.06
2017-09-29T12:42:20.489Z,26.13
2017-09-29T12:44:47.990Z,26.03
2017-09-29T12:47:15.495Z,25.83
2017-09-29T12:49:42.983Z,25.85
2017-09-29T12:52:10.467Z,25.91
2017-09-29T12:54:37.939Z,25.88
2017-09-29T12:57:05.423Z,25.78
2017-09-29T12:59:32.904Z,25.87
2017-09-29T13:02:00.396Z,25.93
2017-09-29T13:04:27.901Z,25.90
2017-09-29T13:06:55.367Z,25.85
2017-09-29T13:09:22.846Z,25.86
2017-09-29T13:11:50.368Z,25.87
2017-09-29T13:14:17.905Z,25.89
2017-09-29T13:16:45.364Z,25.82
2017-09-29T13:19:12.860Z,25.77
2017-09-29T13:21:40.397Z,25.85
2017-09-29T13:24:07.881Z,25.92
2017-09-29T13:26:35.372Z,26.17
2017-09-29T13:29:04.124Z,26.44
2017-09-29T13:31:31.624Z,26.59
2017-09-29T13:33:59.289Z,26.85
2017-09-29T13:36:26.786Z,27.12
2017-09-29T13:38:54.288Z,27.36
2017-09-29T13:41:21.820Z,27.34
2017-09-29T13:43:50.090Z,27.37
2017-09-29T13:46:17.567Z,27.57
2017-09-29T13:48:45.022Z,27.55
2017-09-29T13:51:12.496Z,27.59
2017-09-29T13:53:40.033Z,27.87
2017-09-29T13:56:07.509Z,28.03
2017-09-29T13:58:34.978Z,28.04
2017-09-29T14:01:02.446Z,27.86
2017-09-29T14:03:29.941Z,27.82
2017-09-29T14:05:57.416Z,27.90
2017-09-29T14:08:24.900Z,27.92
2017-09-29T14:10:52.472Z,27.99
2017-09-29T14:13:20.055Z,27.90
2017-09-29T14:15:47.561Z,27.79
2017-09-29T14:18:15.030Z,27.43
2017-09-29T14:20:42.515Z,27.17
2017-09-29T14:23:09.995Z,27.00
2017-09-29T14:25:37.462Z,26.79
2017-09-29T14:28:04.958Z,26.50
2017-09-29T14:30:32.538Z,26.30
2017-09-29T14:33:00.047Z,26.14
2017-09-29T14:35:27.553Z,25.99
2017-09-29T14:37:55.151Z,25.81
2017-09-29T14:40:22.651Z,25.65
2017-09-29T14:42:50.132Z,25.49
2017-09-29T14:45:17.622Z,25.26
2017-09-29T14:47:45.141Z,25.18
2017-09-29T14:50:12.637Z,25.07
2017-09-29T14:52:40.112Z,25.06
2017-09-29T14:55:07.670Z,24.96
2017-09-29T14:57:35.326Z,24.95
2017-09-29T15:00:02.780Z,24.85
2017-09-29T15:02:30.312Z,24.78
2017-09-29T15:04:58.205Z,24.72
2017-09-29T15:07:25.677Z,24.62
2017-09-29T15:09:53.155Z,24.56
2017-09-29T15:12:20.628Z,24.49
2017-09-29T15:14:48.136Z,24.44
2017-09-29T15:17:15.609Z,24.36
2017-09-29T15:19:43.122Z,24.26
2017-09-29T15:22:10.688Z,24.12
2017-09-29T15:24:38.172Z,24.03
2017-09-29T15:27:05.671Z,23.89
2017-09-29T15:29:33.158Z,23.75
2017-09-29T15:32:00.650Z,23.62
2017-09-29T15:34:28.100Z,23.54
2017-09-29T15:36:55.703Z,23.42
2017-09-29T15:39:23.284Z,23.35
2017-09-29T15:41:50.849Z,23.27
2017-09-29T15:44:18.345Z,23.22
2017-09-29T15:46:45.874Z,23.16
2017-09-29T15:49:14.003Z,23.11
2017-09-29T15:51:41.499Z,23.03
2017-09-29T15:54:08.980Z,23.00
2017-09-29T15:56:36.452Z,22.92
2017-09-29T15:59:03.929Z,22.91
2017-09-29T16:01:31.452Z,22.87
2017-09-29T16:03:58.949Z,22.78
2017-09-29T16:06:26.423Z,22.74
2017-09-29T16:08:54.924Z,22.70
2017-09-29T16:11:23.209Z,22.69
2017-09-29T16:13:50.974Z,22.59
2017-09-29T16:16:18.504Z,22.53
2017-09-29T16:18:46.107Z,22.47
2017-09-29T16:21:13.594Z,22.44
2017-09-29T16:23:41.059Z,22.38
2017-09-29T16:26:08.551Z,22.36
2017-09-29T16:28:36.022Z,22.32
2017-09-29T16:31:03.559Z,22.32
2017-09-29T16:33:31.050Z,22.25
2017-09-29T16:35:58.576Z,22.21
2017-09-29T16:38:26.087Z,22.13
2017-09-29T16:40:53.550Z,22.09
2017-09-29T16:43:21.363Z,22.05
2017-09-29T16:45:48.816Z,22.00
2017-09-29T16:48:16.650Z,21.97
2017-09-29T16:50:44.134Z,21.94
2017-09-29T16:53:11.618Z,21.91
2017-09-29T16:55:39.106Z,21.87
2017-09-29T16:58:06.587Z,21.78
2017-09-29T17:00:34.059Z,21.72
2017-09-29T17:03:01.550Z,21.68
2017-09-29T17:05:29.302Z,21.66
2017-09-29T17:07:56.879Z,21.58
2017-09-29T17:10:24.357Z,21.52
2017-09-29T17:12:51.858Z,21.43
2017-09-29T17:15:19.347Z,21.37
2017-09-29T17:17:46.836Z,21.34
2017-09-29T17:20:14.333Z,21.29
2017-09-29T17:22:41.810Z,21.24
2017-09-29T17:25:09.307Z,21.17
2017-09-29T17:27:36.755Z,21.10
2017-09-29T17:30:04.727Z,21.09
2017-09-29T17:32:32.231Z,21.05
2017-09-29T17:34:59.973Z,21.01
2017-09-29T17:37:27.512Z,20.97
2017-09-29T17:39:54.971Z,20.94
2017-09-29T17:42:22.441Z,20.93
2017-09-29T17:44:49.974Z,20.94
2017-09-29T17:47:17.498Z,20.97
2017-09-29T17:49:44.960Z,20.88
2017-09-29T17:52:12.447Z,20.85
2017-09-29T17:54:39.986Z,20.82
2017-09-29T17:57:07.478Z,20.80
2017-09-29T17:59:35.001Z,20.76
2017-09-29T18:02:02.484Z,20.77
2017-09-29T18:04:29.985Z,20.74
2017-09-29T18:06:57.455Z,20.76
2017-09-29T18:09:24.998Z,20.75
2017-09-29T18:11:52.488Z,20.76
2017-09-29T18:14:20.342Z,20.75
2017-09-29T18:16:47.845Z,20.76
2017-09-29T18:19:15.532Z,20.77
2017-09-29T18:21:43.127Z,20.73
2017-09-29T18:24:10.596Z,20.71
2017-09-29T18:26:38.091Z,20.67
2017-09-29T18:29:05.581Z,20.65
2017-09-29T18:31:33.076Z,20.64
2017-09-29T18:34:00.586Z,20.62
2017-09-29T18:36:28.167Z,20.56
2017-09-29T18:38:55.629Z,20.56
2017-09-29T18:44:30.933Z,20.44
2017-09-29T18:47:00.238Z,20.40
2017-09-29T18:49:27.703Z,20.41
2017-09-29T18:51:55.198Z,20.39
2017-09-29T18:54:22.707Z,20.37
2017-09-29T18:56:50.191Z,20.40
2017-09-29T18:59:17.688Z,20.44
2017-09-29T19:01:45.161Z,20.39
2017-09-29T19:04:12.634Z,20.37
2017-09-29T19:06:40.128Z,20.30
2017-09-29T19:09:07.591Z,20.28
2017-09-29T19:11:35.078Z,20.33
2017-09-29T19:14:02.588Z,20.29
2017-09-29T19:16:30.057Z,20.31
2017-09-29T19:18:57.532Z,20.30
2017-09-29T19:21:25.129Z,20.27
2017-09-29T19:23:52.665Z,20.29
2017-09-29T19:26:20.158Z,20.28
2017-09-29T19:28:47.692Z,20.28
2017-09-29T19:31:15.172Z,20.23
2017-09-29T19:33:42.644Z,20.24
2017-09-29T19:36:10.122Z,20.25
2017-09-29T19:38:37.630Z,20.23
2017-09-29T19:41:05.105Z,20.16
2017-09-29T19:43:32.603Z,20.12
2017-09-29T19:46:00.067Z,20.17
2017-09-29T19:48:27.603Z,20.15
2017-09-29T19:50:55.071Z,20.14
2017-09-29T19:53:22.559Z,20.15
2017-09-29T19:55:50.016Z,20.12
2017-09-29T19:58:17.477Z,20.12
2017-09-29T20:00:45.039Z,20.08
2017-09-29T20:03:12.582Z,20.08
2017-09-29T20:05:40.074Z,20.12
2017-09-29T20:08:07.540Z,20.13
2017-09-29T20:10:35.052Z,20.12
2017-09-29T20:13:02.563Z,20.16
2017-09-29T20:15:30.036Z,20.15
2017-09-29T20:17:57.530Z,20.10
2017-09-29T20:20:24.997Z,20.09
2017-09-29T20:22:52.490Z,20.06
2017-09-29T20:25:19.974Z,20.05
2017-09-29T20:27:47.439Z,20.03
2017-09-29T20:30:14.908Z,20.03
2017-09-29T20:32:42.378Z,20.02
2017-09-29T20:35:09.935Z,20.04
2017-09-29T20:37:37.400Z,19.98
2017-09-29T20:40:04.886Z,19.93
2017-09-29T20:42:32.365Z,19.92
2017-09-29T20:44:59.840Z,19.92
2017-09-29T20:47:27.340Z,19.91
2017-09-29T20:49:54.820Z,19.85
2017-09-29T20:52:22.650Z,19.82
2017-09-29T20:54:50.170Z,19.83
2017-09-29T20:57:17.664Z,19.83
2017-09-29T20:59:45.186Z,19.80
2017-09-29T21:02:12.662Z,19.82
2017-09-29T21:04:40.127Z,19.83
2017-09-29T21:07:07.618Z,19.82
2017-09-29T21:09:35.092Z,19.82
2017-09-29T21:12:02.570Z,19.80
2017-09-29T21:14:30.072Z,19.80
2017-09-29T21:16:57.645Z,19.79
2017-09-29T21:19:25.315Z,19.77
2017-09-29T21:21:52.775Z,19.76
2017-09-29T21:24:20.259Z,19.75
2017-09-29T21:26:47.767Z,19.72
2017-09-29T21:29:15.328Z,19.70
2017-09-29T21:31:42.811Z,19.68
2017-09-29T21:34:10.278Z,19.63
2017-09-29T21:36:37.773Z,19.56
2017-09-29T21:39:05.248Z,19.49
2017-09-29T21:41:32.741Z,19.45
2017-09-29T21:44:00.269Z,19.43
2017-09-29T21:46:27.740Z,19.39
2017-09-29T21:48:55.210Z,19.35
2017-09-29T21:51:22.747Z,19.31
2017-09-29T21:53:50.219Z,19.28
2017-09-29T21:56:17.689Z,19.21
2017-09-29T21:58:45.170Z,19.18
2017-09-29T22:01:12.650Z,19.15
2017-09-29T22:03:40.243Z,19.10
2017-09-29T22:06:07.708Z,19.07
2017-09-29T22:08:35.192Z,19.02
2017-09-29T22:11:02.664Z,18.97
2017-09-29T22:13:30.136Z,18.94
2017-09-29T22:15:57.607Z,18.87
2017-09-29T22:18:25.062Z,18.82
2017-09-29T22:20:52.635Z,18.77
2017-09-29T22:23:20.090Z,18.75
2017-09-29T22:25:47.573Z,18.73
2017-09-29T22:28:15.040Z,18.68
2017-09-29T22:30:42.582Z,18.67
2017-09-29T22:33:10.051Z,18.62
2017-09-29T22:35:37.593Z,18.57
2017-09-29T22:38:05.155Z,18.55
2017-09-29T22:40:32.627Z,18.52
2017-09-29T22:43:00.155Z,18.51
2017-09-29T22:45:27.649Z,18.49
2017-09-29T22:47:55.148Z,18.48
2017-09-29T22:50:22.653Z,18.46
2017-09-29T22:52:50.190Z,18.47
2017-09-29T22:55:17.662Z,18.46
2017-09-29T22:57:45.509Z,18.48
2017-09-29T23:00:12.987Z,18.49
2017-09-29T23:02:40.491Z,18.50
2017-09-29T23:05:08.001Z,18.49
2017-09-29T23:07:35.463Z,18.47
2017-09-29T23:10:02.960Z,18.48
2017-09-29T23:12:30.463Z,18.46
2017-09-29T23:14:57.953Z,18.46
2017-09-29T23:17:25.497Z,18.48
2017-09-29T23:19:52.962Z,18.47
2017-09-29T23:22:20.494Z,18.47
2017-09-29T23:24:47.954Z,18.48
2017-09-29T23:27:15.504Z,18.48
2017-09-29T23:29:42.979Z,18.47
2017-09-29T23:32:11.349Z,18.45
2017-09-29T23:34:38.823Z,18.44
2017-09-29T23:37:06.294Z,18.44
2017-09-29T23:39:33.775Z,18.42
2017-09-29T23:42:01.240Z,18.40
2017-09-29T23:44:28.710Z,18.37
2017-09-29T23:46:56.208Z,18.33
2017-09-29T23:49:23.699Z,18.27
2017-09-29T23:51:51.174Z,18.24
2017-09-29T23:54:18.651Z,18.23
2017-09-29T23:56:46.120Z,18.23
2017-09-29T23:59:13.588Z,18.21
